Time;durP1;ratioP1;P1;durP2;ratioP2;P2;SDS_P1;SDS_P2;PMS_P1;PMS_P2;Temp;Humidity;BMP_temperature;BMP_pressure;BME280_temperature;BME280_humidity;BME280_pressure;Samples;Min_cycle;Max_cycle;Signal;HPM_P1;HPM_P2
2021/03/31 00:02:14;;;;;;;11.40;7.97;;;12.40;99.90;;;;;;5035423;28;20548;-74
2021/03/31 00:04:40;;;;;;;11.00;9.43;;;12.30;99.90;;;;;;5035570;28;20171;-74
2021/03/31 00:07:10;;;;;;;25.50;10.63;;;12.30;99.90;;;;;;5017936;28;20168;-75
2021/03/31 00:09:39;;;;;;;13.75;10.18;;;12.20;99.90;;;;;;5017400;28;20274;-75
2021/03/31 00:12:07;;;;;;;10.20;8.73;;;12.20;99.90;;;;;;5035079;28;20612;-75
2021/03/31 00:14:32;;;;;;;18.85;9.18;;;12.10;99.90;;;;;;5039256;28;20253;-74
2021/03/31 00:16:58;;;;;;;9.82;8.60;;;12.10;99.90;;;;;;5035579;28;20237;-74
2021/03/31 00:19:24;;;;;;;9.30;8.18;;;12.00;99.90;;;;;;5035536;28;20175;-75
2021/03/31 00:21:49;;;;;;;12.88;8.90;;;12.00;99.90;;;;;;5017421;28;20218;-75
2021/03/31 00:24:15;;;;;;;16.10;9.65;;;11.90;99.90;;;;;;5035523;28;20168;-75
2021/03/31 00:26:41;;;;;;;14.95;11.05;;;11.90;99.90;;;;;;5035082;28;20532;-75
2021/03/31 00:29:06;;;;;;;17.05;11.77;;;11.90;99.90;;;;;;5017682;28;20609;-75
2021/03/31 00:31:32;;;;;;;17.73;11.98;;;11.80;99.90;;;;;;5017062;28;20238;-74
2021/03/31 00:33:58;;;;;;;14.02;12.35;;;11.80;99.90;;;;;;5035018;28;20570;-74
2021/03/31 00:36:23;;;;;;;19.85;11.57;;;11.80;99.90;;;;;;5042214;28;20176;-75
2021/03/31 00:38:49;;;;;;;16.65;10.30;;;11.80;99.90;;;;;;5016332;28;20171;-74
2021/03/31 00:41:14;;;;;;;16.98;10.90;;;11.80;99.90;;;;;;5024079;28;20629;-74
2021/03/31 00:43:40;;;;;;;11.10;9.95;;;11.80;99.90;;;;;;5017392;28;20212;-74
2021/03/31 00:46:06;;;;;;;14.27;11.35;;;11.80;99.90;;;;;;5034880;28;20536;-74
2021/03/31 00:48:32;;;;;;;19.85;11.88;;;11.70;99.90;;;;;;5033319;28;20163;-74
2021/03/31 00:51:00;;;;;;;13.02;10.85;;;11.70;99.90;;;;;;5034550;28;20176;-74
2021/03/31 00:53:35;;;;;;;12.95;11.48;;;11.70;99.90;;;;;;5000478;28;20203;-74
2021/03/31 00:56:01;;;;;;;14.00;10.35;;;11.60;99.90;;;;;;5034709;28;20660;-74
2021/03/31 00:58:26;;;;;;;12.73;11.15;;;11.60;99.90;;;;;;5016876;28;20168;-74
2021/03/31 01:00:52;;;;;;;16.00;11.88;;;11.60;99.90;;;;;;5016519;28;20267;-74
2021/03/31 01:03:21;;;;;;;13.80;11.57;;;11.60;99.90;;;;;;5034537;28;20204;-74
2021/03/31 01:05:47;;;;;;;13.18;10.75;;;11.60;99.90;;;;;;5016544;28;20184;-74
2021/03/31 01:08:14;;;;;;;18.30;12.35;;;11.60;99.90;;;;;;5020287;28;20198;-74
2021/03/31 01:10:43;;;;;;;16.15;11.50;;;11.50;99.90;;;;;;5017035;28;20193;-74
2021/03/31 01:13:33;;;;;;;17.65;11.27;;;11.50;99.90;;;;;;5034469;28;20223;-74
2021/03/31 01:16:40;;;;;;;18.33;11.75;;;11.50;99.90;;;;;;5034461;28;20263;-74
2021/03/31 01:19:24;;;;;;;18.23;12.93;;;11.40;99.90;;;;;;5034009;28;20194;-74
2021/03/31 01:22:25;;;;;;;17.05;11.80;;;11.40;99.90;;;;;;5016216;28;20294;-74
2021/03/31 01:25:02;;;;;;;21.92;12.43;;;11.40;99.90;;;;;;5034088;28;20234;-74
2021/03/31 01:27:42;;;;;;;18.80;11.48;;;11.40;99.90;;;;;;5033713;28;20234;-74
2021/03/31 01:30:18;;;;;;;17.80;13.15;;;11.40;99.90;;;;;;5034171;28;20170;-75
2021/03/31 01:32:58;;;;;;;14.70;11.88;;;11.30;99.90;;;;;;5015997;28;20176;-74
2021/03/31 01:35:25;;;;;;;16.52;11.35;;;11.30;99.90;;;;;;5033841;28;20168;-73
2021/03/31 01:37:54;;;;;;;12.80;11.20;;;11.20;99.90;;;;;;5033444;28;20246;-73
2021/03/31 01:40:23;;;;;;;22.75;13.00;;;11.20;99.90;;;;;;5021451;28;20274;-74
2021/03/31 01:42:58;;;;;;;18.85;12.40;;;11.30;99.90;;;;;;5033828;28;20204;-74
2021/03/31 01:45:29;;;;;;;16.25;11.45;;;11.20;99.90;;;;;;5033877;28;20178;-74
2021/03/31 01:47:59;;;;;;;17.40;11.30;;;11.10;99.90;;;;;;5052238;28;20179;-74
2021/03/31 01:50:28;;;;;;;18.65;13.45;;;11.10;99.90;;;;;;5050919;28;20204;-74
2021/03/31 01:52:54;;;;;;;14.80;11.23;;;11.10;99.90;;;;;;5049737;28;20164;-74
2021/03/31 01:55:21;;;;;;;16.90;12.00;;;11.10;99.90;;;;;;5038637;28;20255;-74
2021/03/31 01:57:49;;;;;;;22.05;11.80;;;11.10;99.90;;;;;;5015971;28;20176;-74
2021/03/31 02:00:18;;;;;;;16.80;10.77;;;11.00;99.90;;;;;;5015535;28;20537;-73
2021/03/31 02:02:47;;;;;;;20.60;11.82;;;11.00;99.90;;;;;;5033229;28;20196;-74
2021/03/31 02:05:14;;;;;;;15.60;10.95;;;10.90;99.90;;;;;;5033328;28;20161;-74
2021/03/31 02:07:40;;;;;;;18.42;12.05;;;10.90;99.90;;;;;;5031354;28;20260;-74
2021/03/31 02:10:13;;;;;;;17.73;13.55;;;10.80;99.90;;;;;;5023053;28;20206;-74
2021/03/31 02:12:40;;;;;;;27.27;13.95;;;10.80;99.90;;;;;;5033520;28;20172;-74
2021/03/31 02:15:12;;;;;;;23.17;14.15;;;10.90;99.90;;;;;;5033282;28;20194;-73
2021/03/31 02:17:38;;;;;;;17.27;13.60;;;10.80;99.90;;;;;;5015812;28;20267;-74
2021/03/31 02:20:06;;;;;;;17.60;12.48;;;10.80;99.90;;;;;;5033096;28;20180;-74
2021/03/31 02:22:34;;;;;;;18.52;13.23;;;10.70;99.90;;;;;;5015430;28;20230;-74
2021/03/31 02:25:00;;;;;;;15.40;12.65;;;10.70;99.90;;;;;;5033036;28;20175;-74
2021/03/31 02:27:26;;;;;;;20.33;12.50;;;10.70;99.90;;;;;;5015231;28;20174;-74
2021/03/31 02:29:52;;;;;;;18.27;13.27;;;10.70;99.90;;;;;;5032657;28;20184;-74
2021/03/31 02:32:22;;;;;;;17.20;12.20;;;10.70;99.90;;;;;;5033261;28;20352;-74
2021/03/31 02:34:52;;;;;;;15.65;12.95;;;10.70;99.90;;;;;;5015393;28;20601;-74
2021/03/31 02:37:19;;;;;;;31.73;14.35;;;10.70;99.90;;;;;;5031506;28;20254;-74
2021/03/31 02:39:48;;;;;;;17.33;13.32;;;10.70;99.90;;;;;;5043891;28;20196;-74
2021/03/31 02:42:16;;;;;;;16.10;12.65;;;10.70;99.90;;;;;;5036770;28;20550;-74
2021/03/31 02:44:46;;;;;;;18.23;13.20;;;10.60;99.90;;;;;;5036971;28;20631;-74
2021/03/31 02:47:15;;;;;;;20.42;13.48;;;10.50;99.90;;;;;;5037006;28;20176;-74
2021/03/31 02:49:44;;;;;;;17.65;12.45;;;10.50;99.90;;;;;;5036781;28;20624;-74
2021/03/31 02:52:12;;;;;;;16.75;13.25;;;10.50;99.90;;;;;;5036750;28;20171;-75
2021/03/31 02:54:39;;;;;;;16.98;13.23;;;10.50;99.90;;;;;;5019170;28;20165;-74
2021/03/31 02:57:09;;;;;;;23.30;14.35;;;10.50;99.90;;;;;;5037065;28;20684;-75
2021/03/31 02:59:38;;;;;;;16.15;13.20;;;10.50;99.90;;;;;;5015547;28;20223;-74
2021/03/31 03:02:05;;;;;;;21.00;13.57;;;10.50;99.90;;;;;;5015777;28;20283;-74
2021/03/31 03:04:30;;;;;;;17.33;12.40;;;10.40;99.90;;;;;;5017219;28;20177;-74
2021/03/31 03:06:56;;;;;;;20.80;12.30;;;10.40;99.90;;;;;;5040956;28;20643;-74
2021/03/31 03:09:23;;;;;;;21.17;11.95;;;10.40;99.90;;;;;;5013763;28;20192;-74
2021/03/31 03:11:50;;;;;;;20.42;11.13;;;10.40;99.90;;;;;;5019234;28;20306;-74
2021/03/31 03:14:17;;;;;;;19.52;12.13;;;10.30;99.90;;;;;;5036616;28;20164;-74
2021/03/31 03:16:43;;;;;;;20.10;12.43;;;10.30;99.90;;;;;;5036600;28;20617;-74
2021/03/31 03:19:09;;;;;;;17.20;12.43;;;10.20;99.90;;;;;;5018375;28;20179;-74
2021/03/31 03:21:37;;;;;;;13.18;11.77;;;10.20;99.90;;;;;;5018598;28;20172;-75
2021/03/31 03:24:03;;;;;;;20.48;13.57;;;10.20;99.90;;;;;;5018489;28;20652;-74
2021/03/31 03:26:30;;;;;;;19.48;12.07;;;10.20;99.90;;;;;;5036773;28;20165;-75
2021/03/31 03:28:56;;;;;;;23.15;12.95;;;10.20;99.90;;;;;;5036297;28;20207;-74
2021/03/31 03:31:22;;;;;;;20.98;11.75;;;10.30;99.90;;;;;;5018374;28;20274;-74
2021/03/31 03:33:48;;;;;;;15.80;12.88;;;10.30;99.90;;;;;;5036534;28;20203;-74
2021/03/31 03:36:15;;;;;;;18.55;12.90;;;10.20;99.90;;;;;;5044336;28;20619;-74
2021/03/31 03:38:42;;;;;;;22.42;12.70;;;10.30;99.90;;;;;;5054193;28;20171;-74
2021/03/31 03:41:12;;;;;;;18.83;12.80;;;10.30;99.90;;;;;;5018498;28;20532;-74
2021/03/31 03:43:40;;;;;;;19.30;12.40;;;10.20;99.90;;;;;;5036074;28;20215;-74
2021/03/31 03:46:11;;;;;;;15.85;12.80;;;10.20;99.90;;;;;;5035912;28;20171;-74
2021/03/31 03:48:37;;;;;;;20.15;12.32;;;10.10;99.90;;;;;;5034998;28;20172;-74
2021/03/31 03:51:12;;;;;;;22.20;12.15;;;10.10;99.90;;;;;;5017817;28;20180;-74
2021/03/31 03:53:38;;;;;;;18.33;12.15;;;10.10;99.90;;;;;;5018141;28;20190;-74
2021/03/31 03:56:11;;;;;;;23.92;14.38;;;10.10;99.90;;;;;;5035715;28;20164;-74
2021/03/31 03:58:37;;;;;;;14.48;12.98;;;10.10;99.90;;;;;;5035543;28;20171;-74
2021/03/31 04:01:02;;;;;;;16.48;12.25;;;10.10;99.90;;;;;;5035783;28;20637;-74
2021/03/31 04:03:28;;;;;;;20.65;14.05;;;10.00;99.90;;;;;;5017711;28;20204;-74
2021/03/31 04:05:54;;;;;;;22.55;14.68;;;10.10;99.90;;;;;;5040195;28;20171;-74
2021/03/31 04:08:19;;;;;;;20.67;13.80;;;10.10;99.90;;;;;;5037379;28;20182;-73
2021/03/31 04:10:51;;;;;;;25.30;13.40;;;10.20;99.90;;;;;;5019471;28;20198;-74
2021/03/31 04:13:18;;;;;;;16.65;13.52;;;10.10;99.90;;;;;;5035438;28;20247;-74
2021/03/31 04:15:47;;;;;;;22.02;13.52;;;10.00;99.90;;;;;;5017418;28;20552;-74
2021/03/31 04:18:15;;;;;;;28.13;16.20;;;9.90;99.90;;;;;;5035100;28;20167;-74
2021/03/31 04:20:41;;;;;;;24.05;13.43;;;9.90;99.90;;;;;;5015960;28;20230;-74
2021/03/31 04:23:07;;;;;;;22.23;13.90;;;9.90;99.90;;;;;;5014463;28;20649;-74
2021/03/31 04:25:33;;;;;;;17.42;13.80;;;9.80;99.90;;;;;;5015575;28;20173;-74
2021/03/31 04:28:06;;;;;;;19.98;13.90;;;9.80;99.90;;;;;;5014212;28;20331;-74
2021/03/31 04:30:32;;;;;;;20.65;14.48;;;9.80;99.90;;;;;;5033305;28;20205;-74
2021/03/31 04:32:59;;;;;;;22.90;14.50;;;9.70;99.90;;;;;;5017257;28;20297;-74
2021/03/31 04:35:25;;;;;;;26.38;15.75;;;9.70;99.90;;;;;;5038509;28;20638;-74
2021/03/31 04:37:51;;;;;;;20.73;14.63;;;9.70;99.90;;;;;;5054990;28;20164;-74
2021/03/31 04:40:19;;;;;;;22.92;14.13;;;9.80;99.90;;;;;;5019369;28;20647;-74
2021/03/31 04:42:45;;;;;;;23.98;13.20;;;9.80;99.90;;;;;;5017085;28;20271;-74
2021/03/31 04:45:12;;;;;;;19.67;13.95;;;9.80;99.90;;;;;;5048965;28;20171;-74
2021/03/31 04:47:38;;;;;;;18.98;13.88;;;9.70;99.90;;;;;;5054790;28;20178;-73
2021/03/31 04:50:10;;;;;;;20.00;13.88;;;9.70;99.90;;;;;;5039328;28;20164;-74
2021/03/31 04:52:35;;;;;;;16.33;13.27;;;9.60;99.90;;;;;;5016943;28;20205;-74
2021/03/31 04:55:02;;;;;;;18.33;13.43;;;9.60;99.90;;;;;;5016727;28;20617;-74
2021/03/31 04:57:27;;;;;;;19.55;14.30;;;9.60;99.90;;;;;;5016631;28;20184;-74
2021/03/31 04:59:53;;;;;;;18.58;12.18;;;9.60;99.90;;;;;;5033927;28;20639;-74
2021/03/31 05:02:19;;;;;;;25.13;13.52;;;9.60;99.90;;;;;;5016385;28;20651;-74
2021/03/31 05:04:45;;;;;;;17.63;12.73;;;9.60;99.90;;;;;;5000495;28;20172;-74
2021/03/31 05:07:11;;;;;;;21.13;13.35;;;9.60;99.90;;;;;;5034658;28;20288;-74
2021/03/31 05:09:37;;;;;;;20.27;13.10;;;9.60;99.90;;;;;;5023797;28;20187;-74
2021/03/31 05:12:05;;;;;;;25.23;13.82;;;9.50;99.90;;;;;;5016504;28;20212;-74
2021/03/31 05:14:31;;;;;;;14.98;12.88;;;9.50;99.90;;;;;;5034545;28;20160;-74
2021/03/31 05:16:56;;;;;;;18.35;12.70;;;9.40;99.90;;;;;;5034470;28;20175;-74
2021/03/31 05:19:22;;;;;;;25.33;12.52;;;9.40;99.90;;;;;;5033926;28;20184;-74
2021/03/31 05:21:47;;;;;;;25.08;14.27;;;9.40;99.90;;;;;;5034184;28;20234;-74
2021/03/31 05:24:13;;;;;;;22.90;12.95;;;9.30;99.90;;;;;;5016501;28;20195;-73
2021/03/31 05:26:38;;;;;;;17.77;14.02;;;9.40;99.90;;;;;;5033929;28;20172;-74
2021/03/31 05:29:04;;;;;;;19.83;12.68;;;9.40;99.90;;;;;;5034006;28;20234;-74
2021/03/31 05:31:30;;;;;;;27.50;13.25;;;9.40;99.90;;;;;;5016290;28;20639;-74
2021/03/31 05:33:55;;;;;;;22.67;12.38;;;9.50;99.90;;;;;;5033989;28;20179;-74
2021/03/31 05:36:21;;;;;;;21.30;13.52;;;9.50;99.90;;;;;;4996560;28;20271;-73
2021/03/31 05:38:47;;;;;;;17.83;13.60;;;9.50;99.90;;;;;;5019101;28;20214;-74
2021/03/31 05:41:13;;;;;;;16.00;12.90;;;9.50;99.90;;;;;;5016275;28;20632;-73
2021/03/31 05:43:40;;;;;;;20.88;13.93;;;9.50;99.90;;;;;;5016028;28;20214;-73
2021/03/31 05:46:09;;;;;;;26.98;13.95;;;9.60;99.90;;;;;;5034067;28;20609;-73
2021/03/31 05:48:37;;;;;;;21.92;14.23;;;9.70;99.90;;;;;;5033576;28;20168;-74
2021/03/31 05:51:02;;;;;;;17.60;13.65;;;9.80;99.90;;;;;;5033636;28;20589;-74
2021/03/31 05:53:28;;;;;;;21.05;13.40;;;9.90;99.90;;;;;;5033391;28;20286;-73
2021/03/31 05:55:54;;;;;;;18.55;12.88;;;9.90;99.90;;;;;;5015769;28;20180;-74
2021/03/31 05:58:21;;;;;;;26.00;13.18;;;9.90;99.90;;;;;;5033337;28;20160;-74
2021/03/31 06:00:49;;;;;;;17.40;13.57;;;10.00;99.90;;;;;;5033798;28;20256;-74
2021/03/31 06:03:17;;;;;;;22.00;14.57;;;10.10;99.90;;;;;;5033580;28;20179;-73
2021/03/31 06:05:43;;;;;;;14.18;12.10;;;10.20;99.90;;;;;;5033444;28;20168;-74
2021/03/31 06:08:09;;;;;;;19.20;12.32;;;10.30;99.90;;;;;;5033080;28;20267;-74
2021/03/31 06:10:36;;;;;;;21.08;13.15;;;10.40;99.90;;;;;;5033312;28;20654;-73
2021/03/31 06:13:05;;;;;;;15.98;12.68;;;10.50;99.90;;;;;;5015381;28;20274;-73
2021/03/31 06:15:42;;;;;;;16.13;13.27;;;10.60;99.90;;;;;;5033344;28;20625;-74
2021/03/31 06:18:08;;;;;;;21.02;12.40;;;10.60;99.90;;;;;;5016343;28;20210;-74
2021/03/31 06:21:04;;;;;;;17.30;12.43;;;10.70;99.90;;;;;;5015378;28;20217;-74
2021/03/31 06:26:05;;;;;;;18.90;12.25;;;10.70;99.90;;;;;;5033471;28;20613;-74
2021/03/31 06:28:35;;;;;;;14.57;11.82;;;10.90;99.90;;;;;;5033012;28;20209;-75
2021/03/31 06:31:10;;;;;;;17.63;12.27;;;11.10;99.90;;;;;;4975371;28;20213;-74
2021/03/31 06:33:38;;;;;;;13.68;11.20;;;11.30;99.90;;;;;;4991417;28;20204;-75
2021/03/31 06:36:05;;;;;;;22.52;12.40;;;11.50;99.90;;;;;;4991614;28;20672;-74
2021/03/31 06:38:33;;;;;;;19.88;12.10;;;11.60;99.90;;;;;;4991004;28;20177;-74
2021/03/31 06:44:14;;;;;;;13.90;10.32;;;11.90;99.90;;;;;;4991494;28;20264;-74
2021/03/31 06:49:12;;;;;;;14.32;10.43;;;12.30;99.90;;;;;;4991385;28;20585;-75
2021/03/31 06:51:38;;;;;;;15.48;10.23;;;12.50;99.90;;;;;;4975257;28;20221;-75
2021/03/31 06:54:20;;;;;;;12.07;10.07;;;12.70;99.90;;;;;;4975381;28;20177;-74
2021/03/31 06:56:53;;;;;;;19.98;10.30;;;12.90;99.90;;;;;;4991589;28;20204;-74
2021/03/31 06:59:29;;;;;;;18.55;11.55;;;13.10;99.90;;;;;;4991141;28;20260;-76
2021/03/31 07:01:56;;;;;;;27.63;11.40;;;13.30;99.90;;;;;;5004030;28;20187;-74
2021/03/31 07:04:23;;;;;;;13.13;10.07;;;14.00;99.90;;;;;;5032916;28;20580;-74
2021/03/31 07:07:02;;;;;;;21.63;10.52;;;15.20;99.90;;;;;;5033265;28;20210;-74
2021/03/31 07:09:28;;;;;;;18.45;9.50;;;16.50;99.90;;;;;;5022850;28;20196;-75
2021/03/31 07:11:54;;;;;;;10.02;8.73;;;18.40;99.90;;;;;;5017721;28;20268;-74
2021/03/31 07:14:21;;;;;;;11.23;8.13;;;20.60;99.90;;;;;;5033309;28;20169;-75
2021/03/31 07:16:47;;;;;;;12.50;8.15;;;23.00;99.90;;;;;;5001013;28;20516;-75
2021/03/31 07:19:14;;;;;;;8.38;7.53;;;25.60;99.90;;;;;;5015257;28;20164;-75
2021/03/31 07:21:40;;;;;;;14.13;8.07;;;27.90;98.90;;;;;;5034461;28;20271;-75
2021/03/31 07:24:07;;;;;;;14.68;7.75;;;29.90;93.70;;;;;;5034715;28;20167;-75
2021/03/31 07:26:33;;;;;;;15.70;7.88;;;31.70;84.10;;;;;;5018587;28;20203;-75
2021/03/31 07:28:59;;;;;;;11.90;8.45;;;33.20;75.90;;;;;;5035687;28;20211;-75
2021/03/31 07:31:27;;;;;;;13.73;8.05;;;34.60;71.10;;;;;;5036562;28;20164;-74
2021/03/31 07:34:16;;;;;;;8.30;5.97;;;35.90;65.30;;;;;;5056675;28;20198;-75
2021/03/31 07:36:44;;;;;;;9.15;7.47;;;36.80;60.20;;;;;;5031604;28;20171;-75
2021/03/31 07:39:13;;;;;;;13.00;6.68;;;37.40;58.70;;;;;;5018549;28;20513;-74
2021/03/31 07:41:39;;;;;;;10.73;7.05;;;37.70;57.30;;;;;;5052345;28;20628;-73
2021/03/31 07:44:10;;;;;;;14.60;6.72;;;38.00;56.10;;;;;;5056407;28;20182;-73
2021/03/31 07:46:40;;;;;;;10.02;6.03;;;38.60;55.90;;;;;;5031427;28;20221;-74
2021/03/31 07:49:07;;;;;;;10.18;7.07;;;39.30;54.00;;;;;;5037255;28;20171;-73
2021/03/31 07:51:33;;;;;;;14.55;6.60;;;39.90;53.50;;;;;;5036835;28;20184;-75
2021/03/31 07:54:02;;;;;;;12.68;6.45;;;40.30;51.70;;;;;;5034929;28;20258;-75
2021/03/31 07:56:31;;;;;;;17.77;7.07;;;40.50;51.20;;;;;;5044863;28;20184;-74
2021/03/31 07:59:09;;;;;;;10.50;6.40;;;40.40;51.40;;;;;;5035390;28;20261;-74
2021/03/31 08:01:42;;;;;;;13.05;6.25;;;40.30;50.70;;;;;;5018277;28;20175;-75
2021/03/31 08:04:09;;;;;;;14.95;5.88;;;40.50;50.80;;;;;;5036406;28;20250;-74
2021/03/31 08:06:39;;;;;;;10.55;5.78;;;40.50;49.40;;;;;;5037264;28;20206;-75
2021/03/31 08:09:12;;;;;;;10.20;6.47;;;40.10;49.30;;;;;;5047298;28;20249;-74
2021/03/31 08:11:40;;;;;;;15.05;6.70;;;40.20;48.90;;;;;;5035358;28;20261;-74
2021/03/31 08:14:17;;;;;;;9.80;6.28;;;40.50;47.90;;;;;;5036386;28;20191;-74
2021/03/31 08:16:50;;;;;;;14.77;6.68;;;40.60;48.00;;;;;;5018258;28;20624;-74
2021/03/31 08:19:21;;;;;;;12.80;6.55;;;40.80;48.10;;;;;;5017950;28;20636;-74
2021/03/31 08:21:49;;;;;;;12.60;6.10;;;41.30;48.70;;;;;;5035732;28;20186;-74
2021/03/31 08:24:16;;;;;;;7.97;5.53;;;41.60;48.20;;;;;;5036098;28;20245;-74
2021/03/31 08:26:45;;;;;;;10.40;6.20;;;41.30;47.10;;;;;;5036113;28;20584;-74
2021/03/31 08:29:20;;;;;;;13.55;6.38;;;40.90;47.00;;;;;;5017932;28;20198;-73
2021/03/31 08:31:54;;;;;;;17.92;7.00;;;41.30;48.70;;;;;;5017576;28;20175;-73
2021/03/31 08:34:23;;;;;;;17.55;6.70;;;41.10;48.80;;;;;;5017355;28;20159;-73
2021/03/31 08:36:50;;;;;;;24.13;7.40;;;41.00;48.50;;;;;;5035988;28;20175;-73
2021/03/31 08:39:16;;;;;;;13.43;7.05;;;41.40;48.00;;;;;;5018068;28;20179;-74
2021/03/31 08:41:47;;;;;;;21.65;6.68;;;41.40;47.90;;;;;;5035524;28;20163;-73
2021/03/31 08:44:17;;;;;;;14.00;6.82;;;41.40;48.30;;;;;;5035510;28;20650;-74
2021/03/31 08:46:43;;;;;;;8.38;7.28;;;41.30;48.30;;;;;;5034977;28;20171;-74
2021/03/31 08:49:29;;;;;;;7.75;6.60;;;41.10;48.50;;;;;;5017091;28;20176;-74
2021/03/31 08:51:58;;;;;;;12.98;8.05;;;41.10;48.20;;;;;;5030896;28;20176;-73
2021/03/31 08:54:48;;;;;;;18.60;7.47;;;40.80;47.30;;;;;;5035539;28;20240;-75
2021/03/31 08:57:15;;;;;;;9.15;8.02;;;40.90;48.80;;;;;;5026453;28;20205;-74
2021/03/31 08:59:43;;;;;;;11.82;7.57;;;41.40;47.40;;;;;;5033964;28;20583;-74
2021/03/31 09:02:10;;;;;;;8.40;7.53;;;41.50;47.60;;;;;;5034038;28;21041;-73
2021/03/31 09:04:36;;;;;;;12.20;7.63;;;41.80;47.40;;;;;;5034477;28;20163;-74
2021/03/31 09:07:10;;;;;;;14.23;7.78;;;42.30;46.40;;;;;;5016678;28;20225;-74
2021/03/31 09:09:37;;;;;;;12.18;7.57;;;42.20;46.80;;;;;;5015465;28;20191;-74
2021/03/31 09:12:05;;;;;;;13.88;8.35;;;42.70;47.10;;;;;;5034521;28;20175;-74
2021/03/31 09:14:31;;;;;;;17.15;8.70;;;43.30;47.30;;;;;;5034256;28;20163;-74
2021/03/31 09:17:06;;;;;;;10.07;8.27;;;43.20;46.10;;;;;;5033981;28;20172;-73
2021/03/31 09:19:37;;;;;;;16.35;8.40;;;43.50;46.00;;;;;;5033688;28;20580;-73
2021/03/31 09:22:13;;;;;;;16.38;7.97;;;43.40;46.40;;;;;;5033420;28;20631;-74
2021/03/31 09:24:41;;;;;;;11.00;8.23;;;43.70;46.30;;;;;;5052340;28;20554;-74
2021/03/31 09:27:18;;;;;;;14.75;9.68;;;43.70;46.60;;;;;;5054009;28;20163;-74
2021/03/31 09:29:45;;;;;;;12.57;7.88;;;43.70;45.60;;;;;;5020407;28;20655;-73
2021/03/31 09:32:17;;;;;;;13.05;9.27;;;43.80;45.50;;;;;;5012786;28;20204;-73
2021/03/31 09:34:43;;;;;;;16.23;8.90;;;43.80;45.90;;;;;;5019738;28;20163;-74
2021/03/31 09:37:14;;;;;;;13.15;8.95;;;43.50;46.50;;;;;;5033868;28;20203;-74
2021/03/31 09:39:48;;;;;;;19.85;9.13;;;43.60;46.60;;;;;;5027992;28;20221;-73
2021/03/31 09:42:20;;;;;;;24.42;9.52;;;44.00;46.70;;;;;;5013731;28;20203;-73
2021/03/31 09:44:46;;;;;;;15.77;9.15;;;44.20;45.30;;;;;;5014216;28;20169;-73
2021/03/31 09:47:12;;;;;;;12.00;9.02;;;44.80;45.90;;;;;;5027979;28;20180;-73
2021/03/31 09:49:42;;;;;;;16.77;9.07;;;44.50;45.50;;;;;;5033826;28;20221;-73
2021/03/31 09:52:07;;;;;;;20.73;10.70;;;43.90;45.70;;;;;;5033916;28;20171;-74
2021/03/31 09:54:33;;;;;;;16.05;9.88;;;44.00;44.40;;;;;;5028687;28;20192;-75
2021/03/31 09:56:59;;;;;;;17.80;9.45;;;43.90;44.90;;;;;;5031851;28;20176;-74
2021/03/31 09:59:25;;;;;;;12.40;9.32;;;44.50;45.10;;;;;;5033426;28;20221;-74
2021/03/31 10:01:51;;;;;;;11.38;9.55;;;45.10;45.40;;;;;;5033092;28;20171;-74
2021/03/31 10:04:18;;;;;;;15.43;9.20;;;45.00;45.00;;;;;;5015209;28;20317;-74
2021/03/31 10:06:44;;;;;;;18.23;9.82;;;45.30;45.30;;;;;;4999220;28;20179;-74
2021/03/31 10:09:17;;;;;;;15.18;9.88;;;45.90;44.80;;;;;;5033106;28;20183;-75
2021/03/31 10:11:44;;;;;;;15.90;9.80;;;46.20;44.80;;;;;;5015149;28;20258;-74
2021/03/31 10:14:23;;;;;;;20.50;10.65;;;46.20;45.00;;;;;;5032798;28;20175;-75
2021/03/31 10:16:50;;;;;;;20.75;10.82;;;45.70;45.80;;;;;;5033225;28;20250;-74
2021/03/31 10:19:16;;;;;;;12.18;9.63;;;45.30;45.10;;;;;;5032508;28;20537;-74
2021/03/31 10:21:43;;;;;;;13.68;10.30;;;46.10;44.60;;;;;;5033314;28;20526;-74
2021/03/31 10:24:11;;;;;;;18.40;10.77;;;46.40;44.90;;;;;;5032564;28;20246;-74
2021/03/31 10:26:39;;;;;;;13.50;10.18;;;45.80;44.70;;;;;;5014773;28;20245;-75
2021/03/31 10:29:22;;;;;;;12.32;10.23;;;45.90;45.50;;;;;;5032812;28;20683;-74
2021/03/31 10:31:49;;;;;;;13.43;10.35;;;46.50;44.90;;;;;;5033095;28;20196;-73
2021/03/31 10:34:17;;;;;;;17.92;11.20;;;46.60;44.30;;;;;;5033234;28;20190;-73
2021/03/31 10:36:47;;;;;;;20.75;11.95;;;46.50;44.40;;;;;;5033256;28;20167;-73
2021/03/31 10:48:14;;;;;;;20.02;13.95;;;45.90;44.90;;;;;;5033016;28;20198;-74
2021/03/31 10:53:16;;;;;;;25.67;15.48;;;46.00;44.90;;;;;;5036505;28;20266;-73
2021/03/31 10:55:43;;;;;;;24.02;15.75;;;46.00;43.80;;;;;;5032906;28;20255;-74
2021/03/31 10:58:10;;;;;;;20.63;15.43;;;45.70;44.80;;;;;;5032814;28;20175;-74
2021/03/31 11:00:36;;;;;;;26.67;16.70;;;45.50;45.50;;;;;;5036503;28;20562;-74
2021/03/31 11:03:03;;;;;;;23.48;15.85;;;44.80;44.00;;;;;;5034989;28;20207;-73
2021/03/31 11:05:29;;;;;;;24.20;15.18;;;45.50;44.40;;;;;;5018985;28;20612;-73
2021/03/31 11:07:55;;;;;;;23.85;14.77;;;44.90;45.10;;;;;;5036352;28;20585;-73
2021/03/31 11:10:21;;;;;;;22.10;15.48;;;44.90;44.50;;;;;;5036738;28;20190;-74
2021/03/31 11:12:48;;;;;;;23.55;15.05;;;45.10;45.80;;;;;;5036787;28;20163;-73
2021/03/31 11:15:15;;;;;;;23.05;14.98;;;44.90;44.60;;;;;;5036681;28;20168;-73
2021/03/31 11:17:51;;;;;;;27.40;14.63;;;44.70;45.60;;;;;;5036628;28;20182;-73
2021/03/31 11:25:57;;;;;;;27.95;15.27;;;44.30;44.50;;;;;;5016968;28;20227;-76
2021/03/31 11:28:23;;;;;;;23.52;14.98;;;44.90;43.50;;;;;;5016892;28;20222;-73
2021/03/31 11:30:50;;;;;;;27.80;15.68;;;44.60;44.60;;;;;;5024499;28;20171;-73
2021/03/31 11:33:16;;;;;;;31.65;14.30;;;43.80;46.30;;;;;;5035885;28;20225;-73
2021/03/31 11:35:43;;;;;;;18.88;14.07;;;43.20;46.50;;;;;;5035977;28;20643;-73
2021/03/31 11:38:10;;;;;;;26.30;15.43;;;43.40;46.10;;;;;;5035900;28;20203;-73
2021/03/31 11:40:36;;;;;;;21.45;15.10;;;44.10;44.50;;;;;;5018292;28;20262;-73
2021/03/31 11:43:01;;;;;;;21.10;13.80;;;45.00;45.00;;;;;;5035610;28;20286;-73
2021/03/31 11:45:27;;;;;;;19.75;13.93;;;44.10;44.70;;;;;;5035593;28;20637;-73
2021/03/31 11:47:53;;;;;;;27.98;14.75;;;43.80;45.80;;;;;;5035942;28;20178;-73
2021/03/31 11:50:19;;;;;;;26.95;14.35;;;43.50;44.80;;;;;;5028080;28;20176;-73
2021/03/31 11:52:45;;;;;;;27.52;15.20;;;44.00;45.20;;;;;;5035856;28;20168;-73
2021/03/31 11:55:11;;;;;;;25.08;15.10;;;44.20;44.80;;;;;;5036059;28;20234;-73
2021/03/31 11:57:36;;;;;;;25.02;14.27;;;44.30;43.50;;;;;;5035325;28;20675;-73
2021/03/31 12:00:06;;;;;;;23.73;15.73;;;44.40;43.30;;;;;;5001701;28;20223;-73
2021/03/31 12:02:31;;;;;;;26.45;14.68;;;44.10;44.00;;;;;;5017804;28;20200;-74
2021/03/31 12:04:58;;;;;;;25.77;15.50;;;43.40;44.80;;;;;;5035304;28;20166;-73
2021/03/31 12:07:24;;;;;;;36.97;15.05;;;43.10;44.40;;;;;;5017758;28;20214;-73
2021/03/31 12:09:50;;;;;;;36.08;15.60;;;42.40;45.50;;;;;;5016977;28;20560;-73
2021/03/31 12:12:16;;;;;;;22.85;14.48;;;42.10;45.30;;;;;;5035588;28;20172;-73
2021/03/31 12:14:42;;;;;;;29.17;15.75;;;41.50;47.00;;;;;;5035649;28;20172;-72
2021/03/31 12:17:08;;;;;;;28.25;14.57;;;41.90;46.30;;;;;;5035086;28;20176;-72
2021/03/31 12:19:34;;;;;;;24.40;14.10;;;41.50;44.10;;;;;;5030969;28;20203;-73
2021/03/31 12:22:00;;;;;;;29.10;15.65;;;41.00;46.30;;;;;;5055467;28;20258;-72
2021/03/31 12:24:26;;;;;;;27.92;16.33;;;40.30;46.00;;;;;;5020972;28;20258;-73
2021/03/31 12:26:52;;;;;;;34.05;17.10;;;39.70;46.30;;;;;;5043050;28;20186;-73
2021/03/31 12:29:18;;;;;;;27.92;16.77;;;39.10;47.80;;;;;;5017309;28;20216;-73
2021/03/31 12:31:45;;;;;;;29.20;18.27;;;38.40;48.30;;;;;;5017163;28;20548;-73
2021/03/31 12:34:11;;;;;;;26.02;16.15;;;38.20;48.40;;;;;;5035520;28;20163;-73
2021/03/31 12:36:37;;;;;;;30.08;15.88;;;38.40;49.10;;;;;;5033770;28;20178;-73
2021/03/31 12:39:04;;;;;;;29.20;17.58;;;37.80;48.90;;;;;;5035254;28;20612;-72
2021/03/31 12:41:32;;;;;;;33.45;16.85;;;37.40;47.50;;;;;;5001060;28;20184;-72
2021/03/31 12:43:58;;;;;;;20.85;13.30;;;36.10;50.20;;;;;;5034699;28;20204;-73
2021/03/31 12:46:25;;;;;;;22.75;12.90;;;34.20;50.80;;;;;;5034167;28;20665;-73
2021/03/31 12:48:51;;;;;;;22.05;11.00;;;32.60;52.10;;;;;;5040449;28;20596;-73
2021/03/31 12:51:24;;;;;;;15.40;8.93;;;31.60;51.80;;;;;;5043462;28;20175;-73
2021/03/31 12:54:00;;;;;;;23.65;11.60;;;30.90;50.70;;;;;;5024352;28;20179;-73
2021/03/31 12:56:27;;;;;;;13.73;8.10;;;30.50;53.90;;;;;;5026916;28;20183;-73
2021/03/31 12:58:52;;;;;;;18.83;9.77;;;30.20;53.00;;;;;;5034569;28;20259;-72
2021/03/31 13:01:24;;;;;;;24.35;11.38;;;29.90;52.50;;;;;;5033395;28;20607;-73
2021/03/31 13:03:50;;;;;;;7.78;5.75;;;29.60;54.60;;;;;;5017800;28;20215;-73